sensor_id;sensor_type;location;lat;lon;timestamp;temperature;humidity
65472;DHT22;52068;50.710;14.492;2023-09-19T00:01:33;24.67;53.24
65472;DHT22;52068;50.710;14.492;2023-09-19T00:03:58;24.64;53.29
65472;DHT22;52068;50.710;14.492;2023-09-19T00:06:24;24.64;53.25
65472;DHT22;52068;50.710;14.492;2023-09-19T00:08:51;24.64;53.30
65472;DHT22;52068;50.710;14.492;2023-09-19T00:11:17;24.63;53.26
65472;DHT22;52068;50.710;14.492;2023-09-19T00:13:42;24.65;53.28
65472;DHT22;52068;50.710;14.492;2023-09-19T00:16:09;24.64;53.32
65472;DHT22;52068;50.710;14.492;2023-09-19T00:18:37;24.64;53.33
65472;DHT22;52068;50.710;14.492;2023-09-19T00:21:03;24.63;53.30
65472;DHT22;52068;50.710;14.492;2023-09-19T00:23:30;24.63;53.32
65472;DHT22;52068;50.710;14.492;2023-09-19T00:26:00;24.61;53.31
65472;DHT22;52068;50.710;14.492;2023-09-19T00:28:29;24.61;53.34
65472;DHT22;52068;50.710;14.492;2023-09-19T00:30:56;24.61;53.32
65472;DHT22;52068;50.710;14.492;2023-09-19T00:33:22;24.61;53.32
65472;DHT22;52068;50.710;14.492;2023-09-19T00:35:51;24.63;53.32
65472;DHT22;52068;50.710;14.492;2023-09-19T00:38:18;24.60;53.32
65472;DHT22;52068;50.710;14.492;2023-09-19T00:40:48;24.60;53.31
65472;DHT22;52068;50.710;14.492;2023-09-19T00:43:14;24.61;53.34
65472;DHT22;52068;50.710;14.492;2023-09-19T00:45:45;24.60;53.30
65472;DHT22;52068;50.710;14.492;2023-09-19T00:48:13;24.61;53.32
65472;DHT22;52068;50.710;14.492;2023-09-19T00:50:39;24.60;53.29
65472;DHT22;52068;50.710;14.492;2023-09-19T00:53:07;24.61;53.33
65472;DHT22;52068;50.710;14.492;2023-09-19T00:55:34;24.59;53.35
65472;DHT22;52068;50.710;14.492;2023-09-19T00:58:00;24.59;53.28
65472;DHT22;52068;50.710;14.492;2023-09-19T01:00:25;24.59;53.29
65472;DHT22;52068;50.710;14.492;2023-09-19T01:02:51;24.60;53.30
65472;DHT22;52068;50.710;14.492;2023-09-19T01:05:17;24.60;53.29
65472;DHT22;52068;50.710;14.492;2023-09-19T01:07:43;24.59;53.35
65472;DHT22;52068;50.710;14.492;2023-09-19T01:10:17;24.59;53.28
65472;DHT22;52068;50.710;14.492;2023-09-19T01:18:16;24.57;53.35
65472;DHT22;52068;50.710;14.492;2023-09-19T01:29:23;24.57;53.30
65472;DHT22;52068;50.710;14.492;2023-09-19T01:31:57;24.53;53.33
65472;DHT22;52068;50.710;14.492;2023-09-19T01:34:26;24.54;53.34
65472;DHT22;52068;50.710;14.492;2023-09-19T01:36:52;24.56;53.32
65472;DHT22;52068;50.710;14.492;2023-09-19T01:39:17;24.54;53.36
65472;DHT22;52068;50.710;14.492;2023-09-19T01:42:13;24.56;53.33
65472;DHT22;52068;50.710;14.492;2023-09-19T01:44:54;24.54;53.31
65472;DHT22;52068;50.710;14.492;2023-09-19T01:47:32;24.50;53.33
65472;DHT22;52068;50.710;14.492;2023-09-19T01:50:47;24.53;53.30
65472;DHT22;52068;50.710;14.492;2023-09-19T01:54:16;24.53;53.38
65472;DHT22;52068;50.710;14.492;2023-09-19T01:56:37;24.53;53.36
65472;DHT22;52068;50.710;14.492;2023-09-19T01:59:10;24.52;53.36
65472;DHT22;52068;50.710;14.492;2023-09-19T02:01:37;24.49;53.35
65472;DHT22;52068;50.710;14.492;2023-09-19T02:04:04;24.50;53.28
65472;DHT22;52068;50.710;14.492;2023-09-19T02:06:30;24.52;53.32
65472;DHT22;52068;50.710;14.492;2023-09-19T02:08:55;24.52;53.34
65472;DHT22;52068;50.710;14.492;2023-09-19T02:11:21;24.49;53.36
65472;DHT22;52068;50.710;14.492;2023-09-19T02:13:46;24.50;53.33
65472;DHT22;52068;50.710;14.492;2023-09-19T02:16:11;24.54;53.31
65472;DHT22;52068;50.710;14.492;2023-09-19T02:18:38;24.53;53.28
65472;DHT22;52068;50.710;14.492;2023-09-19T02:21:04;24.53;53.26
65472;DHT22;52068;50.710;14.492;2023-09-19T02:23:32;24.52;53.23
65472;DHT22;52068;50.710;14.492;2023-09-19T02:25:58;24.53;53.31
65472;DHT22;52068;50.710;14.492;2023-09-19T02:28:26;24.53;53.29
65472;DHT22;52068;50.710;14.492;2023-09-19T02:30:55;24.56;53.26
65472;DHT22;52068;50.710;14.492;2023-09-19T02:33:21;24.52;53.25
65472;DHT22;52068;50.710;14.492;2023-09-19T02:35:46;24.53;53.28
65472;DHT22;52068;50.710;14.492;2023-09-19T02:38:12;24.52;53.31
65472;DHT22;52068;50.710;14.492;2023-09-19T02:40:38;24.50;53.27
65472;DHT22;52068;50.710;14.492;2023-09-19T02:43:03;24.53;53.31
65472;DHT22;52068;50.710;14.492;2023-09-19T02:45:30;24.50;53.29
65472;DHT22;52068;50.710;14.492;2023-09-19T02:47:55;24.52;53.28
65472;DHT22;52068;50.710;14.492;2023-09-19T02:50:21;24.49;53.30
65472;DHT22;52068;50.710;14.492;2023-09-19T02:52:47;24.49;53.30
65472;DHT22;52068;50.710;14.492;2023-09-19T02:55:14;24.49;53.33
65472;DHT22;52068;50.710;14.492;2023-09-19T02:57:46;24.49;53.34
65472;DHT22;52068;50.710;14.492;2023-09-19T03:00:12;24.50;53.30
65472;DHT22;52068;50.710;14.492;2023-09-19T03:02:38;24.49;53.30
65472;DHT22;52068;50.710;14.492;2023-09-19T03:05:05;24.47;53.32
65472;DHT22;52068;50.710;14.492;2023-09-19T03:07:32;24.47;53.27
65472;DHT22;52068;50.710;14.492;2023-09-19T03:09:57;24.49;53.34
65472;DHT22;52068;50.710;14.492;2023-09-19T03:12:22;24.47;53.32
65472;DHT22;52068;50.710;14.492;2023-09-19T03:14:48;24.49;53.32
65472;DHT22;52068;50.710;14.492;2023-09-19T03:17:13;24.47;53.35
65472;DHT22;52068;50.710;14.492;2023-09-19T03:19:40;24.46;53.34
65472;DHT22;52068;50.710;14.492;2023-09-19T03:22:05;24.47;53.32
65472;DHT22;52068;50.710;14.492;2023-09-19T03:24:30;24.46;53.34
65472;DHT22;52068;50.710;14.492;2023-09-19T03:26:57;24.44;53.31
65472;DHT22;52068;50.710;14.492;2023-09-19T03:29:22;24.44;53.40
65472;DHT22;52068;50.710;14.492;2023-09-19T03:31:48;24.44;53.32
65472;DHT22;52068;50.710;14.492;2023-09-19T03:34:13;24.44;53.40
65472;DHT22;52068;50.710;14.492;2023-09-19T03:36:38;24.44;53.32
65472;DHT22;52068;50.710;14.492;2023-09-19T03:39:05;24.44;53.36
65472;DHT22;52068;50.710;14.492;2023-09-19T03:41:31;24.46;53.34
65472;DHT22;52068;50.710;14.492;2023-09-19T03:43:58;24.43;53.31
65472;DHT22;52068;50.710;14.492;2023-09-19T03:46:23;24.44;53.32
65472;DHT22;52068;50.710;14.492;2023-09-19T03:48:50;24.46;53.36
65472;DHT22;52068;50.710;14.492;2023-09-19T03:51:15;24.41;53.34
65472;DHT22;52068;50.710;14.492;2023-09-19T03:53:40;24.43;53.31
65472;DHT22;52068;50.710;14.492;2023-09-19T03:56:06;24.44;53.32
65472;DHT22;52068;50.710;14.492;2023-09-19T03:58:33;24.43;53.32
65472;DHT22;52068;50.710;14.492;2023-09-19T04:01:00;24.43;53.33
65472;DHT22;52068;50.710;14.492;2023-09-19T04:03:25;24.44;53.32
65472;DHT22;52068;50.710;14.492;2023-09-19T04:06:01;24.44;53.35
65472;DHT22;52068;50.710;14.492;2023-09-19T04:08:26;24.44;53.36
65472;DHT22;52068;50.710;14.492;2023-09-19T04:10:52;24.40;53.35
65472;DHT22;52068;50.710;14.492;2023-09-19T04:13:18;24.41;53.35
65472;DHT22;52068;50.710;14.492;2023-09-19T04:15:43;24.41;53.32
65472;DHT22;52068;50.710;14.492;2023-09-19T04:18:11;24.43;53.29
65472;DHT22;52068;50.710;14.492;2023-09-19T04:20:37;24.43;53.33
65472;DHT22;52068;50.710;14.492;2023-09-19T04:23:02;24.40;53.32
65472;DHT22;52068;50.710;14.492;2023-09-19T04:25:27;24.41;53.32
65472;DHT22;52068;50.710;14.492;2023-09-19T04:27:53;24.41;53.31
65472;DHT22;52068;50.710;14.492;2023-09-19T04:30:18;24.40;53.30
65472;DHT22;52068;50.710;14.492;2023-09-19T04:32:44;24.43;53.29
65472;DHT22;52068;50.710;14.492;2023-09-19T04:35:10;24.40;53.32
65472;DHT22;52068;50.710;14.492;2023-09-19T04:37:40;24.41;53.35
65472;DHT22;52068;50.710;14.492;2023-09-19T04:40:10;24.40;53.34
65472;DHT22;52068;50.710;14.492;2023-09-19T04:42:40;24.39;53.30
65472;DHT22;52068;50.710;14.492;2023-09-19T04:45:06;24.40;53.25
65472;DHT22;52068;50.710;14.492;2023-09-19T04:47:32;24.41;53.29
65472;DHT22;52068;50.710;14.492;2023-09-19T04:49:57;24.39;53.25
65472;DHT22;52068;50.710;14.492;2023-09-19T04:52:24;24.40;53.30
65472;DHT22;52068;50.710;14.492;2023-09-19T04:54:50;24.39;53.26
65472;DHT22;52068;50.710;14.492;2023-09-19T04:57:15;24.43;53.29
65472;DHT22;52068;50.710;14.492;2023-09-19T04:59:41;24.39;53.32
65472;DHT22;52068;50.710;14.492;2023-09-19T05:02:07;24.37;53.26
65472;DHT22;52068;50.710;14.492;2023-09-19T05:04:35;24.40;53.27
65472;DHT22;52068;50.710;14.492;2023-09-19T05:07:00;24.39;53.31
65472;DHT22;52068;50.710;14.492;2023-09-19T05:09:28;24.39;53.35
65472;DHT22;52068;50.710;14.492;2023-09-19T05:11:54;24.40;53.28
65472;DHT22;52068;50.710;14.492;2023-09-19T05:14:19;24.37;53.27
65472;DHT22;52068;50.710;14.492;2023-09-19T05:16:46;24.39;53.32
65472;DHT22;52068;50.710;14.492;2023-09-19T05:19:11;24.39;53.28
65472;DHT22;52068;50.710;14.492;2023-09-19T05:21:37;24.40;53.30
65472;DHT22;52068;50.710;14.492;2023-09-19T05:24:05;24.37;53.29
65472;DHT22;52068;50.710;14.492;2023-09-19T05:26:32;24.37;53.30
65472;DHT22;52068;50.710;14.492;2023-09-19T05:28:57;24.39;53.31
65472;DHT22;52068;50.710;14.492;2023-09-19T05:31:22;24.39;53.28
65472;DHT22;52068;50.710;14.492;2023-09-19T05:33:49;24.39;53.30
65472;DHT22;52068;50.710;14.492;2023-09-19T05:36:15;24.37;53.31
65472;DHT22;52068;50.710;14.492;2023-09-19T05:38:42;24.37;53.29
65472;DHT22;52068;50.710;14.492;2023-09-19T05:41:08;24.37;53.33
65472;DHT22;52068;50.710;14.492;2023-09-19T05:43:35;24.37;53.35
65472;DHT22;52068;50.710;14.492;2023-09-19T05:46:03;24.37;53.41
65472;DHT22;52068;50.710;14.492;2023-09-19T05:48:28;24.39;53.38
65472;DHT22;52068;50.710;14.492;2023-09-19T05:50:54;24.36;53.36
65472;DHT22;52068;50.710;14.492;2023-09-19T05:53:19;24.39;53.34
65472;DHT22;52068;50.710;14.492;2023-09-19T05:55:44;24.37;53.38
65472;DHT22;52068;50.710;14.492;2023-09-19T05:58:10;24.39;53.35
65472;DHT22;52068;50.710;14.492;2023-09-19T06:00:39;24.36;53.38
65472;DHT22;52068;50.710;14.492;2023-09-19T06:03:07;24.36;53.41
65472;DHT22;52068;50.710;14.492;2023-09-19T06:05:33;24.37;53.49
65472;DHT22;52068;50.710;14.492;2023-09-19T06:07:58;24.39;53.58
65472;DHT22;52068;50.710;14.492;2023-09-19T06:10:33;24.39;53.64
65472;DHT22;52068;50.710;14.492;2023-09-19T06:12:59;24.39;53.78
65472;DHT22;52068;50.710;14.492;2023-09-19T06:15:25;24.39;53.82
65472;DHT22;52068;50.710;14.492;2023-09-19T06:17:52;24.40;53.79
65472;DHT22;52068;50.710;14.492;2023-09-19T06:20:21;24.40;53.81
65472;DHT22;52068;50.710;14.492;2023-09-19T06:22:48;24.41;53.78
65472;DHT22;52068;50.710;14.492;2023-09-19T06:25:14;24.41;53.64
65472;DHT22;52068;50.710;14.492;2023-09-19T06:27:51;24.41;53.61
65472;DHT22;52068;50.710;14.492;2023-09-19T06:30:21;24.41;53.57
65472;DHT22;52068;50.710;14.492;2023-09-19T06:32:48;24.39;53.56
65472;DHT22;52068;50.710;14.492;2023-09-19T06:35:15;24.43;53.55
65472;DHT22;52068;50.710;14.492;2023-09-19T06:37:42;24.43;53.56
65472;DHT22;52068;50.710;14.492;2023-09-19T06:40:09;24.41;53.53
65472;DHT22;52068;50.710;14.492;2023-09-19T06:42:43;24.41;53.54
65472;DHT22;52068;50.710;14.492;2023-09-19T06:45:09;24.43;53.56
65472;DHT22;52068;50.710;14.492;2023-09-19T06:47:38;24.40;53.52
65472;DHT22;52068;50.710;14.492;2023-09-19T06:50:04;24.41;53.52
65472;DHT22;52068;50.710;14.492;2023-09-19T06:52:30;24.40;53.54
65472;DHT22;52068;50.710;14.492;2023-09-19T06:54:57;24.41;53.54
65472;DHT22;52068;50.710;14.492;2023-09-19T06:57:22;24.41;53.53
65472;DHT22;52068;50.710;14.492;2023-09-19T06:59:48;24.43;53.50
65472;DHT22;52068;50.710;14.492;2023-09-19T07:02:13;24.44;53.53
65472;DHT22;52068;50.710;14.492;2023-09-19T07:04:39;24.41;53.55
65472;DHT22;52068;50.710;14.492;2023-09-19T07:07:04;24.43;53.56
65472;DHT22;52068;50.710;14.492;2023-09-19T07:09:29;24.43;53.50
65472;DHT22;52068;50.710;14.492;2023-09-19T07:11:55;24.40;53.54
65472;DHT22;52068;50.710;14.492;2023-09-19T07:14:21;24.41;53.53
65472;DHT22;52068;50.710;14.492;2023-09-19T07:16:46;24.41;53.53
65472;DHT22;52068;50.710;14.492;2023-09-19T07:19:12;24.41;53.58
65472;DHT22;52068;50.710;14.492;2023-09-19T07:21:40;24.43;53.57
65472;DHT22;52068;50.710;14.492;2023-09-19T07:24:05;24.40;53.57
65472;DHT22;52068;50.710;14.492;2023-09-19T07:26:31;24.43;53.53
65472;DHT22;52068;50.710;14.492;2023-09-19T07:28:57;24.46;53.54
65472;DHT22;52068;50.710;14.492;2023-09-19T07:31:27;24.44;53.49
65472;DHT22;52068;50.710;14.492;2023-09-19T07:33:53;24.43;53.52
65472;DHT22;52068;50.710;14.492;2023-09-19T07:36:19;24.43;53.46
65472;DHT22;52068;50.710;14.492;2023-09-19T07:38:45;24.41;53.44
65472;DHT22;52068;50.710;14.492;2023-09-19T07:41:10;24.44;53.45
65472;DHT22;52068;50.710;14.492;2023-09-19T07:43:35;24.44;53.40
65472;DHT22;52068;50.710;14.492;2023-09-19T07:46:07;24.46;53.42
65472;DHT22;52068;50.710;14.492;2023-09-19T07:48:34;24.46;53.49
65472;DHT22;52068;50.710;14.492;2023-09-19T07:51:08;24.47;53.55
65472;DHT22;52068;50.710;14.492;2023-09-19T07:53:34;24.47;53.57
65472;DHT22;52068;50.710;14.492;2023-09-19T07:56:08;24.49;53.61
65472;DHT22;52068;50.710;14.492;2023-09-19T07:58:34;24.49;53.62
65472;DHT22;52068;50.710;14.492;2023-09-19T08:01:04;24.52;53.72
65472;DHT22;52068;50.710;14.492;2023-09-19T08:03:30;24.52;53.69
65472;DHT22;52068;50.710;14.492;2023-09-19T08:05:59;24.52;53.71
65472;DHT22;52068;50.710;14.492;2023-09-19T08:08:25;24.52;53.67
65472;DHT22;52068;50.710;14.492;2023-09-19T08:10:57;24.54;53.65
65472;DHT22;52068;50.710;14.492;2023-09-19T08:13:23;24.53;53.63
65472;DHT22;52068;50.710;14.492;2023-09-19T08:15:49;24.53;53.58
65472;DHT22;52068;50.710;14.492;2023-09-19T08:18:15;24.53;53.62
65472;DHT22;52068;50.710;14.492;2023-09-19T08:20:40;24.56;53.64
65472;DHT22;52068;50.710;14.492;2023-09-19T08:23:07;24.53;53.60
65472;DHT22;52068;50.710;14.492;2023-09-19T08:25:33;24.54;53.61
65472;DHT22;52068;50.710;14.492;2023-09-19T08:27:59;24.53;53.63
65472;DHT22;52068;50.710;14.492;2023-09-19T08:30:26;24.54;53.66
65472;DHT22;52068;50.710;14.492;2023-09-19T08:33:02;24.54;53.72
65472;DHT22;52068;50.710;14.492;2023-09-19T08:35:28;24.56;53.69
65472;DHT22;52068;50.710;14.492;2023-09-19T08:37:53;24.57;53.75
65472;DHT22;52068;50.710;14.492;2023-09-19T08:40:21;24.56;53.73
65472;DHT22;52068;50.710;14.492;2023-09-19T08:42:50;24.57;53.77
65472;DHT22;52068;50.710;14.492;2023-09-19T08:45:16;24.54;53.80
65472;DHT22;52068;50.710;14.492;2023-09-19T08:48:16;24.54;53.74
65472;DHT22;52068;50.710;14.492;2023-09-19T08:50:48;24.59;53.77
65472;DHT22;52068;50.710;14.492;2023-09-19T08:54:06;24.59;53.84
65472;DHT22;52068;50.710;14.492;2023-09-19T08:56:09;24.57;53.83
65472;DHT22;52068;50.710;14.492;2023-09-19T08:58:46;24.59;53.75
65472;DHT22;52068;50.710;14.492;2023-09-19T09:01:15;24.57;53.78
65472;DHT22;52068;50.710;14.492;2023-09-19T09:03:42;24.57;53.73
65472;DHT22;52068;50.710;14.492;2023-09-19T09:06:12;24.59;53.69
65472;DHT22;52068;50.710;14.492;2023-09-19T09:08:40;24.59;53.73
65472;DHT22;52068;50.710;14.492;2023-09-19T09:11:07;24.59;53.71
65472;DHT22;52068;50.710;14.492;2023-09-19T09:13:34;24.61;53.66
65472;DHT22;52068;50.710;14.492;2023-09-19T09:16:00;24.60;53.57
65472;DHT22;52068;50.710;14.492;2023-09-19T09:18:25;24.61;53.46
65472;DHT22;52068;50.710;14.492;2023-09-19T09:20:51;24.63;53.41
65472;DHT22;52068;50.710;14.492;2023-09-19T09:23:16;24.61;53.32
65472;DHT22;52068;50.710;14.492;2023-09-19T09:25:52;24.63;53.26
65472;DHT22;52068;50.710;14.492;2023-09-19T09:28:29;24.64;53.28
65472;DHT22;52068;50.710;14.492;2023-09-19T09:30:56;24.61;53.17
65472;DHT22;52068;50.710;14.492;2023-09-19T09:33:24;24.64;53.08
65472;DHT22;52068;50.710;14.492;2023-09-19T09:35:55;24.67;53.00
65472;DHT22;52068;50.710;14.492;2023-09-19T09:38:27;24.64;52.93
65472;DHT22;52068;50.710;14.492;2023-09-19T09:40:54;24.65;52.88
65472;DHT22;52068;50.710;14.492;2023-09-19T09:43:34;24.67;52.92
65472;DHT22;52068;50.710;14.492;2023-09-19T09:46:17;24.65;52.83
65472;DHT22;52068;50.710;14.492;2023-09-19T09:48:46;24.64;52.85
65472;DHT22;52068;50.710;14.492;2023-09-19T09:51:32;24.68;52.79
65472;DHT22;52068;50.710;14.492;2023-09-19T09:54:15;24.68;52.80
65472;DHT22;52068;50.710;14.492;2023-09-19T09:56:57;24.68;52.83
65472;DHT22;52068;50.710;14.492;2023-09-19T10:02:35;24.70;52.61
65472;DHT22;52068;50.710;14.492;2023-09-19T10:05:16;24.68;52.52
65472;DHT22;52068;50.710;14.492;2023-09-19T10:07:46;24.70;52.49
65472;DHT22;52068;50.710;14.492;2023-09-19T10:13:12;24.73;52.67
65472;DHT22;52068;50.710;14.492;2023-09-19T10:15:42;24.73;52.69
65472;DHT22;52068;50.710;14.492;2023-09-19T10:18:12;24.75;52.88
65472;DHT22;52068;50.710;14.492;2023-09-19T10:20:44;24.75;52.96
65472;DHT22;52068;50.710;14.492;2023-09-19T10:23:11;24.74;53.14
65472;DHT22;52068;50.710;14.492;2023-09-19T10:25:44;24.74;53.09
65472;DHT22;52068;50.710;14.492;2023-09-19T10:28:13;24.75;53.04
65472;DHT22;52068;50.710;14.492;2023-09-19T10:30:46;24.77;52.95
65472;DHT22;52068;50.710;14.492;2023-09-19T10:33:22;24.75;52.86
65472;DHT22;52068;50.710;14.492;2023-09-19T10:35:51;24.75;52.74
65472;DHT22;52068;50.710;14.492;2023-09-19T10:38:23;24.78;52.65
65472;DHT22;52068;50.710;14.492;2023-09-19T10:40:50;24.81;52.53
65472;DHT22;52068;50.710;14.492;2023-09-19T10:43:17;24.84;52.55
65472;DHT22;52068;50.710;14.492;2023-09-19T10:45:47;24.83;52.38
65472;DHT22;52068;50.710;14.492;2023-09-19T10:48:15;24.85;52.31
65472;DHT22;52068;50.710;14.492;2023-09-19T10:50:48;24.84;52.32
65472;DHT22;52068;50.710;14.492;2023-09-19T10:53:16;24.85;52.28
65472;DHT22;52068;50.710;14.492;2023-09-19T10:55:58;24.83;52.29
65472;DHT22;52068;50.710;14.492;2023-09-19T10:58:29;24.83;52.28
65472;DHT22;52068;50.710;14.492;2023-09-19T11:00:56;24.81;52.31
65472;DHT22;52068;50.710;14.492;2023-09-19T11:03:26;24.83;52.24
65472;DHT22;52068;50.710;14.492;2023-09-19T11:06:08;24.84;52.26
65472;DHT22;52068;50.710;14.492;2023-09-19T11:09:00;24.83;52.31
65472;DHT22;52068;50.710;14.492;2023-09-19T11:30:33;24.83;52.33
65472;DHT22;52068;50.710;14.492;2023-09-19T11:33:24;24.85;52.36
65472;DHT22;52068;50.710;14.492;2023-09-19T11:36:12;24.87;52.29
65472;DHT22;52068;50.710;14.492;2023-09-19T11:43:47;24.88;52.18
65472;DHT22;52068;50.710;14.492;2023-09-19T11:46:13;24.94;52.14
65472;DHT22;52068;50.710;14.492;2023-09-19T11:48:42;24.92;52.06
65472;DHT22;52068;50.710;14.492;2023-09-19T11:51:11;24.96;51.84
65472;DHT22;52068;50.710;14.492;2023-09-19T11:53:41;24.99;51.90
65472;DHT22;52068;50.710;14.492;2023-09-19T11:56:08;24.99;51.60
65472;DHT22;52068;50.710;14.492;2023-09-19T11:58:36;25.01;51.39
65472;DHT22;52068;50.710;14.492;2023-09-19T12:01:05;25.04;51.22
65472;DHT22;52068;50.710;14.492;2023-09-19T12:03:35;25.08;50.91
65472;DHT22;52068;50.710;14.492;2023-09-19T12:06:11;25.12;50.89
65472;DHT22;52068;50.710;14.492;2023-09-19T12:08:39;25.14;50.77
65472;DHT22;52068;50.710;14.492;2023-09-19T12:11:05;25.14;50.64
65472;DHT22;52068;50.710;14.492;2023-09-19T12:13:34;25.15;50.43
65472;DHT22;52068;50.710;14.492;2023-09-19T12:16:11;25.18;50.20
65472;DHT22;52068;50.710;14.492;2023-09-19T12:18:40;25.21;50.05
65472;DHT22;52068;50.710;14.492;2023-09-19T12:21:08;25.22;49.81
65472;DHT22;52068;50.710;14.492;2023-09-19T12:23:37;25.21;49.44
65472;DHT22;52068;50.710;14.492;2023-09-19T12:26:06;25.25;49.21
65472;DHT22;52068;50.710;14.492;2023-09-19T12:28:41;25.26;49.18
65472;DHT22;52068;50.710;14.492;2023-09-19T12:31:07;25.28;49.52
65472;DHT22;52068;50.710;14.492;2023-09-19T12:33:33;25.26;49.72
65472;DHT22;52068;50.710;14.492;2023-09-19T12:35:59;25.26;49.93
65472;DHT22;52068;50.710;14.492;2023-09-19T12:38:25;25.31;49.97
65472;DHT22;52068;50.710;14.492;2023-09-19T12:40:55;25.29;49.96
65472;DHT22;52068;50.710;14.492;2023-09-19T12:43:21;25.34;49.97
65472;DHT22;52068;50.710;14.492;2023-09-19T12:45:47;25.35;50.00
65472;DHT22;52068;50.710;14.492;2023-09-19T12:48:23;25.35;49.98
65472;DHT22;52068;50.710;14.492;2023-09-19T12:53:25;25.42;50.03
65472;DHT22;52068;50.710;14.492;2023-09-19T12:56:00;25.43;50.00
65472;DHT22;52068;50.710;14.492;2023-09-19T12:58:26;25.42;50.00
65472;DHT22;52068;50.710;14.492;2023-09-19T13:00:52;25.42;50.00
65472;DHT22;52068;50.710;14.492;2023-09-19T13:05:58;25.43;50.04
65472;DHT22;52068;50.710;14.492;2023-09-19T13:22:03;25.55;49.90
65472;DHT22;52068;50.710;14.492;2023-09-19T13:24:28;25.59;49.88
65472;DHT22;52068;50.710;14.492;2023-09-19T13:26:56;25.61;49.85
65472;DHT22;52068;50.710;14.492;2023-09-19T13:29:22;25.59;49.82
65472;DHT22;52068;50.710;14.492;2023-09-19T13:31:48;25.61;49.85
65472;DHT22;52068;50.710;14.492;2023-09-19T13:34:14;25.65;49.82
65472;DHT22;52068;50.710;14.492;2023-09-19T13:36:41;25.65;49.77
65472;DHT22;52068;50.710;14.492;2023-09-19T13:39:07;25.66;49.78
65472;DHT22;52068;50.710;14.492;2023-09-19T13:41:34;25.67;49.76
65472;DHT22;52068;50.710;14.492;2023-09-19T13:44:02;25.70;49.73
65472;DHT22;52068;50.710;14.492;2023-09-19T13:46:28;25.70;49.73
65472;DHT22;52068;50.710;14.492;2023-09-19T13:48:53;25.72;49.69
65472;DHT22;52068;50.710;14.492;2023-09-19T13:51:25;25.73;49.66
65472;DHT22;52068;50.710;14.492;2023-09-19T13:53:51;25.72;49.71
65472;DHT22;52068;50.710;14.492;2023-09-19T13:56:16;25.75;49.65
65472;DHT22;52068;50.710;14.492;2023-09-19T13:58:42;25.79;49.67
65472;DHT22;52068;50.710;14.492;2023-09-19T14:01:07;25.75;49.63
65472;DHT22;52068;50.710;14.492;2023-09-19T14:03:38;25.77;49.61
65472;DHT22;52068;50.710;14.492;2023-09-19T14:06:04;25.79;49.65
65472;DHT22;52068;50.710;14.492;2023-09-19T14:08:30;25.79;49.62
65472;DHT22;52068;50.710;14.492;2023-09-19T14:10:55;25.80;49.66
65472;DHT22;52068;50.710;14.492;2023-09-19T14:13:21;25.77;49.67
65472;DHT22;52068;50.710;14.492;2023-09-19T14:15:46;25.79;49.67
65472;DHT22;52068;50.710;14.492;2023-09-19T14:18:12;25.80;49.71
65472;DHT22;52068;50.710;14.492;2023-09-19T14:20:40;25.79;49.74
65472;DHT22;52068;50.710;14.492;2023-09-19T14:23:06;25.77;49.76
65472;DHT22;52068;50.710;14.492;2023-09-19T14:25:34;25.79;49.76
65472;DHT22;52068;50.710;14.492;2023-09-19T14:28:00;25.82;49.78
65472;DHT22;52068;50.710;14.492;2023-09-19T14:30:25;25.80;49.73
65472;DHT22;52068;50.710;14.492;2023-09-19T14:32:51;25.80;49.78
65472;DHT22;52068;50.710;14.492;2023-09-19T14:35:16;25.82;49.78
65472;DHT22;52068;50.710;14.492;2023-09-19T14:37:42;25.80;49.74
65472;DHT22;52068;50.710;14.492;2023-09-19T14:40:08;25.80;49.81
65472;DHT22;52068;50.710;14.492;2023-09-19T14:42:39;25.80;49.84
65472;DHT22;52068;50.710;14.492;2023-09-19T14:45:05;25.77;49.87
65472;DHT22;52068;50.710;14.492;2023-09-19T14:47:31;25.79;49.91
65472;DHT22;52068;50.710;14.492;2023-09-19T14:50:01;25.76;49.98
65472;DHT22;52068;50.710;14.492;2023-09-19T14:52:27;25.76;49.95
65472;DHT22;52068;50.710;14.492;2023-09-19T14:54:54;25.76;49.93
65472;DHT22;52068;50.710;14.492;2023-09-19T14:57:19;25.76;49.89
65472;DHT22;52068;50.710;14.492;2023-09-19T14:59:45;25.77;49.93
65472;DHT22;52068;50.710;14.492;2023-09-19T15:02:10;25.79;49.87
65472;DHT22;52068;50.710;14.492;2023-09-19T15:04:36;25.82;49.81
65472;DHT22;52068;50.710;14.492;2023-09-19T15:07:02;25.83;49.81
65472;DHT22;52068;50.710;14.492;2023-09-19T15:09:28;25.84;49.76
65472;DHT22;52068;50.710;14.492;2023-09-19T15:11:53;25.84;49.72
65472;DHT22;52068;50.710;14.492;2023-09-19T15:14:19;25.80;49.71
65472;DHT22;52068;50.710;14.492;2023-09-19T15:16:46;25.84;49.79
65472;DHT22;52068;50.710;14.492;2023-09-19T15:19:11;25.80;49.84
65472;DHT22;52068;50.710;14.492;2023-09-19T15:21:37;25.82;49.80
65472;DHT22;52068;50.710;14.492;2023-09-19T15:24:02;25.79;49.88
65472;DHT22;52068;50.710;14.492;2023-09-19T15:26:28;25.82;49.83
65472;DHT22;52068;50.710;14.492;2023-09-19T15:28:55;25.83;49.86
65472;DHT22;52068;50.710;14.492;2023-09-19T15:31:20;25.86;49.83
65472;DHT22;52068;50.710;14.492;2023-09-19T15:33:46;25.87;49.83
65472;DHT22;52068;50.710;14.492;2023-09-19T15:36:13;25.84;49.77
65472;DHT22;52068;50.710;14.492;2023-09-19T15:39:04;25.87;49.78
65472;DHT22;52068;50.710;14.492;2023-09-19T15:41:40;25.86;49.77
65472;DHT22;52068;50.710;14.492;2023-09-19T15:44:14;25.86;49.72
65472;DHT22;52068;50.710;14.492;2023-09-19T15:46:40;25.84;49.80
65472;DHT22;52068;50.710;14.492;2023-09-19T15:49:06;25.82;49.85
65472;DHT22;52068;50.710;14.492;2023-09-19T15:51:32;25.82;49.87
65472;DHT22;52068;50.710;14.492;2023-09-19T15:53:58;25.77;49.93
65472;DHT22;52068;50.710;14.492;2023-09-19T15:56:25;25.77;49.93
65472;DHT22;52068;50.710;14.492;2023-09-19T15:58:53;25.76;50.03
65472;DHT22;52068;50.710;14.492;2023-09-19T16:01:19;25.72;50.10
65472;DHT22;52068;50.710;14.492;2023-09-19T16:03:48;25.70;50.13
65472;DHT22;52068;50.710;14.492;2023-09-19T16:06:18;25.67;50.21
65472;DHT22;52068;50.710;14.492;2023-09-19T16:08:46;25.69;50.23
65472;DHT22;52068;50.710;14.492;2023-09-19T16:11:12;25.66;50.29
65472;DHT22;52068;50.710;14.492;2023-09-19T16:13:39;25.66;50.37
65472;DHT22;52068;50.710;14.492;2023-09-19T16:16:05;25.65;50.41
65472;DHT22;52068;50.710;14.492;2023-09-19T16:18:30;25.63;50.43
65472;DHT22;52068;50.710;14.492;2023-09-19T16:21:06;25.61;50.45
65472;DHT22;52068;50.710;14.492;2023-09-19T16:23:36;25.58;50.50
65472;DHT22;52068;50.710;14.492;2023-09-19T16:26:04;25.56;50.55